Time;durP1;ratioP1;P1;durP2;ratioP2;P2;SDS_P1;SDS_P2;PMS_P1;PMS_P2;Temp;Humidity;BMP_temperature;BMP_pressure;BME280_temperature;BME280_humidity;BME280_pressure;Samples;Min_cycle;Max_cycle;Signal;HPM_P1;HPM_P2
2021/01/05 00:01:57;;;;;;;3.58;1.42;;;;;;;8.40;68.49;100597.84;5041914;28;20040;-49
2021/01/05 00:04:23;;;;;;;2.25;1.08;;;;;;;8.42;68.71;100587.75;5041944;28;20045;-48
2021/01/05 00:06:48;;;;;;;3.28;1.88;;;;;;;8.36;68.14;100584.09;5043031;28;20039;-48
2021/01/05 00:09:14;;;;;;;1.38;0.82;;;;;;;8.39;67.81;100577.50;5040740;28;20042;-48
2021/01/05 00:11:59;;;;;;;2.22;1.08;;;;;;;8.46;67.64;100572.91;5044727;28;20025;-45
2021/01/05 00:14:26;;;;;;;2.05;1.25;;;;;;;8.33;68.46;100573.91;5045641;28;20517;-48
2021/01/05 00:16:52;;;;;;;4.25;2.92;;;;;;;8.34;68.42;100570.16;5046768;28;20033;-45
2021/01/05 00:19:19;;;;;;;4.05;2.85;;;;;;;8.26;68.48;100567.84;5045260;28;20042;-52
2021/01/05 00:21:44;;;;;;;5.47;2.15;;;;;;;8.11;69.25;100566.38;5046666;28;20044;-45
2021/01/05 00:24:10;;;;;;;3.72;1.77;;;;;;;8.13;69.16;100568.81;5044676;28;20045;-45
2021/01/05 00:26:36;;;;;;;2.85;1.85;;;;;;;8.06;69.03;100555.56;5044674;28;20067;-51
2021/01/05 00:29:03;;;;;;;10.60;7.32;;;;;;;8.16;68.39;100557.69;5038417;28;20044;-46
2021/01/05 00:31:28;;;;;;;10.88;5.75;;;;;;;8.09;68.58;100565.78;5046326;28;20029;-48
2021/01/05 00:33:54;;;;;;;6.55;3.80;;;;;;;7.90;69.20;100554.34;5046234;28;20037;-46
2021/01/05 00:36:19;;;;;;;4.70;2.20;;;;;;;7.81;69.34;100566.38;5025231;28;20034;-49
2021/01/05 00:38:45;;;;;;;1.30;1.05;;;;;;;7.88;68.38;100564.44;5041976;28;20057;-49
2021/01/05 00:41:10;;;;;;;2.15;1.15;;;;;;;7.84;68.88;100565.13;5043872;28;20037;-48
2021/01/05 00:43:36;;;;;;;3.20;1.67;;;;;;;7.89;68.61;100567.94;5031258;28;20045;-46
2021/01/05 00:46:01;;;;;;;4.50;2.05;;;;;;;7.91;68.32;100576.53;5030747;28;20038;-47
2021/01/05 00:48:27;;;;;;;2.05;1.48;;;;;;;7.89;68.59;100575.94;5030134;28;20497;-48
2021/01/05 00:50:52;;;;;;;1.65;1.10;;;;;;;7.97;67.85;100558.78;5039947;28;20108;-48
2021/01/05 00:53:18;;;;;;;3.33;1.90;;;;;;;7.94;67.98;100568.88;5044457;28;20037;-47
2021/01/05 00:55:43;;;;;;;4.05;1.88;;;;;;;7.89;67.50;100567.94;5041012;28;20080;-46
2021/01/05 00:58:08;;;;;;;2.65;1.50;;;;;;;7.55;68.48;100568.31;5029587;28;20045;-46
2021/01/05 01:00:34;;;;;;;3.15;1.60;;;;;;;7.48;68.65;100569.44;5029189;28;20033;-50
2021/01/05 01:03:00;;;;;;;2.50;1.60;;;;;;;7.71;68.23;100571.44;5042365;28;20489;-47
2021/01/05 01:05:25;;;;;;;2.55;1.20;;;;;;;7.76;68.11;100558.22;5036114;28;20040;-46
2021/01/05 01:07:51;;;;;;;2.38;1.20;;;;;;;7.62;68.56;100554.09;5030735;28;20068;-45
2021/01/05 01:10:17;;;;;;;1.77;1.35;;;;;;;7.34;69.65;100558.09;5030337;28;20033;-47
2021/01/05 01:12:42;;;;;;;5.28;3.03;;;;;;;7.40;69.63;100562.56;5041504;28;20482;-47
2021/01/05 01:15:09;;;;;;;3.50;2.10;;;;;;;7.45;68.87;100565.38;5044063;28;20040;-45
2021/01/05 01:17:34;;;;;;;5.70;2.83;;;;;;;7.44;69.01;100566.41;5046083;28;20060;-46
2021/01/05 01:20:00;;;;;;;4.22;3.05;;;;;;;7.48;69.17;100570.25;5043216;28;20036;-45
2021/01/05 01:22:25;;;;;;;8.75;6.95;;;;;;;7.49;68.34;100569.22;5044626;28;20761;-46
2021/01/05 01:24:52;;;;;;;11.98;8.18;;;;;;;7.24;68.42;100576.47;5037986;28;20044;-46
2021/01/05 01:27:19;;;;;;;10.60;6.10;;;;;;;7.18;69.43;100584.31;5043287;28;20049;-49
2021/01/05 01:29:44;;;;;;;7.30;4.75;;;;;;;7.36;68.47;100574.69;5029785;28;20406;-47
2021/01/05 01:32:10;;;;;;;4.68;2.75;;;;;;;7.43;67.99;100575.44;5029867;28;20516;-47
2021/01/05 01:34:35;;;;;;;6.18;3.70;;;;;;;7.39;68.47;100579.59;5029725;28;20042;-47
2021/01/05 01:37:04;;;;;;;6.82;3.88;;;;;;;7.36;68.23;100564.03;5029760;28;20059;-47
2021/01/05 01:39:31;;;;;;;6.55;4.22;;;;;;;6.98;69.48;100571.19;5028636;28;20516;-47
2021/01/05 01:41:59;;;;;;;6.05;4.18;;;;;;;7.03;69.85;100573.22;5054924;28;20080;-45
2021/01/05 01:44:30;;;;;;;5.25;2.75;;;;;;;6.94;69.45;100582.50;5031125;28;20120;-46
2021/01/05 01:47:18;;;;;;;9.13;5.53;;;;;;;6.97;69.09;100580.22;5028472;28;20818;-44
2021/01/05 01:49:49;;;;;;;5.80;3.60;;;;;;;7.08;68.93;100584.03;5024469;28;20505;-47
2021/01/05 01:52:23;;;;;;;4.65;2.78;;;;;;;7.03;68.94;100581.22;5029531;28;20033;-50
2021/01/05 01:55:24;;;;;;;10.27;3.90;;;;;;;6.66;70.55;100585.59;5029348;28;20033;-51
2021/01/05 01:58:04;;;;;;;8.20;4.78;;;;;;;6.86;69.83;100586.25;5026700;28;20057;-49
2021/01/05 02:00:42;;;;;;;9.55;6.32;;;;;;;6.71;70.12;100583.91;5045089;28;20037;-46
2021/01/05 02:03:23;;;;;;;8.95;6.70;;;;;;;6.75;69.71;100600.28;5001983;28;20045;-49
2021/01/05 02:06:00;;;;;;;8.70;5.00;;;;;;;6.89;69.25;100595.66;5045063;28;20043;-48
2021/01/05 02:08:41;;;;;;;6.22;3.70;;;;;;;6.98;68.94;100589.84;5043746;28;20050;-49
2021/01/05 02:11:24;;;;;;;9.60;8.25;;;;;;;6.77;69.50;100601.72;5042420;28;20091;-47
2021/01/05 02:14:09;;;;;;;8.27;4.05;;;;;;;6.80;69.61;100609.28;5045466;28;20063;-46
2021/01/05 02:17:00;;;;;;;6.70;4.20;;;;;;;6.80;69.64;100605.78;5023982;28;20037;-48
2021/01/05 02:19:40;;;;;;;4.18;3.40;;;;;;;6.90;69.00;100606.09;5043074;28;20409;-50
2021/01/05 02:22:44;;;;;;;5.97;4.57;;;;;;;6.96;68.61;100607.09;5031763;28;20041;-45
2021/01/05 02:25:22;;;;;;;9.02;3.05;;;;;;;7.16;67.46;100599.72;5028562;28;20482;-46
2021/01/05 02:28:00;;;;;;;4.47;2.92;;;;;;;7.05;68.12;100603.13;5030420;28;20053;-45
2021/01/05 02:30:32;;;;;;;7.13;3.30;;;;;;;6.96;68.63;100601.75;5046191;28;20036;-45
2021/01/05 02:33:35;;;;;;;11.95;6.55;;;;;;;6.86;68.46;100601.44;5046240;28;20105;-45
2021/01/05 02:36:28;;;;;;;12.45;7.88;;;;;;;6.66;69.74;100606.91;5029808;28;20033;-46
2021/01/05 02:39:04;;;;;;;10.13;5.82;;;;;;;6.70;69.81;100613.47;5029005;28;20034;-45
2021/01/05 02:41:29;;;;;;;7.97;6.15;;;;;;;6.73;69.60;100607.69;5031271;28;20572;-46
2021/01/05 02:44:09;;;;;;;9.35;5.43;;;;;;;6.58;70.64;100611.47;5031922;28;20041;-45
2021/01/05 02:46:40;;;;;;;5.75;3.42;;;;;;;6.65;70.69;100599.97;5025748;28;20035;-49
2021/01/05 02:49:38;;;;;;;5.68;4.40;;;;;;;6.60;71.22;100600.63;5031834;28;20060;-48
2021/01/05 02:52:56;;;;;;;5.68;3.25;;;;;;;6.66;70.72;100605.06;5029334;28;20486;-46
2021/01/05 02:55:43;;;;;;;4.75;2.55;;;;;;;6.69;70.91;100599.31;5044453;28;20538;-45
2021/01/05 02:58:37;;;;;;;4.22;3.42;;;;;;;6.87;70.28;100595.88;5045163;28;20457;-49
2021/01/05 03:01:31;;;;;;;7.13;3.67;;;;;;;6.88;70.43;100596.72;5045259;28;20028;-47
2021/01/05 03:03:57;;;;;;;6.95;4.25;;;;;;;6.77;71.51;100593.72;5019142;28;20474;-52
2021/01/05 03:06:42;;;;;;;6.97;4.65;;;;;;;6.84;70.78;100593.66;5031131;28;20105;-51
2021/01/05 03:09:38;;;;;;;6.43;3.80;;;;;;;6.78;70.68;100583.88;5031473;28;20049;-47
2021/01/05 03:12:54;;;;;;;10.50;5.47;;;;;;;6.97;70.33;100576.72;5031057;28;20029;-47
2021/01/05 03:15:38;;;;;;;6.30;3.97;;;;;;;6.80;70.90;100577.31;5035656;28;20084;-50
2021/01/05 03:18:25;;;;;;;5.32;3.90;;;;;;;6.72;70.51;100572.25;5038378;28;20099;-47
2021/01/05 03:21:06;;;;;;;6.68;4.85;;;;;;;6.77;70.66;100571.59;5027495;28;20041;-49
2021/01/05 03:23:33;;;;;;;4.90;3.78;;;;;;;6.90;70.41;100568.78;5025086;28;20072;-48
2021/01/05 03:26:05;;;;;;;10.57;4.65;;;;;;;6.88;70.12;100572.72;5030929;28;20463;-49
2021/01/05 03:28:32;;;;;;;13.60;7.28;;;;;;;6.95;70.19;100568.16;5030734;28;20057;-50
2021/01/05 03:31:10;;;;;;;11.05;8.25;;;;;;;6.71;70.65;100559.94;5030042;28;20115;-49
2021/01/05 03:33:35;;;;;;;10.02;6.65;;;;;;;6.82;70.81;100561.09;5025853;28;20045;-47
2021/01/05 03:36:01;;;;;;;8.77;5.38;;;;;;;6.91;70.60;100564.28;5030783;28;20040;-49
2021/01/05 03:38:27;;;;;;;12.88;5.22;;;;;;;7.01;70.31;100567.25;5031031;28;20038;-45
2021/01/05 03:40:52;;;;;;;6.70;5.05;;;;;;;7.03;70.31;100559.88;5030373;28;20033;-48
2021/01/05 03:43:18;;;;;;;7.88;5.10;;;;;;;6.92;70.41;100557.91;5030938;28;20478;-46
2021/01/05 03:45:43;;;;;;;7.30;5.13;;;;;;;6.94;70.87;100555.84;5034142;28;20036;-50
2021/01/05 03:48:09;;;;;;;11.02;5.57;;;;;;;6.85;70.99;100554.50;5034890;28;20041;-48
2021/01/05 03:50:34;;;;;;;5.97;4.00;;;;;;;6.95;70.83;100557.47;5035299;28;20076;-48
2021/01/05 03:53:00;;;;;;;6.60;4.35;;;;;;;7.00;70.61;100549.66;5035100;28;20029;-48
2021/01/05 03:55:25;;;;;;;4.85;3.65;;;;;;;6.99;70.15;100542.66;5034590;28;20036;-46
2021/01/05 03:57:51;;;;;;;5.93;3.33;;;;;;;6.96;70.26;100541.28;5034885;28;20063;-49
2021/01/05 04:00:25;;;;;;;16.25;5.22;;;;;;;6.97;69.61;100534.88;5034854;28;20450;-49
2021/01/05 04:02:55;;;;;;;8.25;3.58;;;;;;;6.63;70.52;100533.59;5034760;28;20091;-50
2021/01/05 04:05:22;;;;;;;6.10;3.28;;;;;;;6.42;71.73;100524.94;5034370;28;20029;-46
2021/01/05 04:07:48;;;;;;;3.40;2.38;;;;;;;6.55;71.43;100531.19;5034974;28;20059;-45
2021/01/05 04:10:14;;;;;;;2.25;1.70;;;;;;;6.84;70.85;100540.38;5034418;28;20037;-47
2021/01/05 04:12:39;;;;;;;2.40;1.63;;;;;;;6.91;70.91;100557.09;5034619;28;20041;-45
2021/01/05 04:15:08;;;;;;;2.67;2.03;;;;;;;7.04;70.45;100576.69;5034480;28;20485;-46
2021/01/05 04:17:34;;;;;;;7.15;4.72;;;;;;;7.08;69.73;100573.38;5028716;28;20041;-47
2021/01/05 04:19:59;;;;;;;7.88;3.78;;;;;;;7.12;69.71;100590.53;5034332;28;20063;-46
2021/01/05 04:22:25;;;;;;;8.65;4.50;;;;;;;6.93;70.38;100597.69;5033966;28;20046;-46
2021/01/05 04:24:50;;;;;;;7.07;6.00;;;;;;;6.71;70.43;100583.91;5034013;28;20033;-46
2021/01/05 04:27:16;;;;;;;8.63;4.40;;;;;;;6.50;71.84;100584.28;5034170;28;20090;-47
2021/01/05 04:29:41;;;;;;;5.03;3.25;;;;;;;6.89;70.44;100575.19;5033600;28;20170;-46
2021/01/05 04:32:07;;;;;;;3.80;2.53;;;;;;;7.09;70.07;100574.97;5033937;28;20072;-48
2021/01/05 04:34:32;;;;;;;3.30;2.30;;;;;;;7.16;69.95;100581.06;5039338;28;20030;-46
2021/01/05 04:36:58;;;;;;;2.40;1.63;;;;;;;7.15;69.78;100579.44;5033755;28;20029;-46
2021/01/05 04:39:23;;;;;;;4.22;1.63;;;;;;;7.22;69.99;100567.88;5033162;28;20041;-46
2021/01/05 04:42:03;;;;;;;2.92;1.10;;;;;;;7.34;70.22;100574.13;5033739;28;20491;-46
2021/01/05 04:44:37;;;;;;;4.28;2.70;;;;;;;7.33;69.86;100567.16;5049070;28;20402;-47
2021/01/05 04:47:31;;;;;;;3.72;2.20;;;;;;;7.22;70.15;100551.88;5047874;28;20040;-47
2021/01/05 04:50:06;;;;;;;2.35;1.13;;;;;;;7.32;70.39;100560.19;5036549;28;20029;-46
2021/01/05 04:52:40;;;;;;;4.20;1.40;;;;;;;7.26;70.99;100553.06;5027638;28;20045;-45
2021/01/05 04:55:22;;;;;;;2.03;1.33;;;;;;;7.29;71.07;100547.28;5033705;28;20109;-46
2021/01/05 04:57:55;;;;;;;4.25;1.35;;;;;;;7.44;70.47;100553.06;5029142;28;20041;-45
2021/01/05 05:00:26;;;;;;;1.83;1.25;;;;;;;7.58;70.19;100573.22;5046538;28;20041;-47
2021/01/05 05:02:58;;;;;;;0.88;0.43;;;;;;;7.56;70.95;100572.63;5049345;28;20470;-45
2021/01/05 05:05:23;;;;;;;;;;;;;;;7.75;70.05;100572.63;5036852;28;20046;-46
2021/01/05 05:07:54;;;;;;;2.28;1.80;;;;;;;7.76;70.00;100584.91;5032848;28;19921;-53
2021/01/05 05:10:29;;;;;;;;;;;;;;;7.62;70.40;100588.78;5030424;28;20450;-51
2021/01/05 05:13:06;;;;;;;4.22;1.75;;;;;;;7.43;70.67;100594.13;5033509;28;19924;-45
2021/01/05 05:15:43;;;;;;;3.65;1.40;;;;;;;7.62;69.54;100596.78;5033244;28;20608;-45
2021/01/05 05:18:13;;;;;;;1.98;0.98;;;;;;;7.68;69.00;100595.88;5032312;28;20048;-46
2021/01/05 05:20:47;;;;;;;2.47;0.80;;;;;;;7.52;68.14;100595.47;5036294;28;20026;-47
2021/01/05 05:23:32;;;;;;;3.70;0.40;;;;;;;7.36;68.08;100601.38;5031979;28;20034;-45
2021/01/05 05:26:06;;;;;;;1.23;0.35;;;;;;;7.41;68.47;100606.88;5030821;28;20482;-45
2021/01/05 05:28:43;;;;;;;0.50;0.25;;;;;;;7.44;69.27;100610.97;5031766;28;20537;-47
2021/01/05 05:31:15;;;;;;;1.83;0.57;;;;;;;7.32;69.07;100614.34;5034667;28;20025;-49
2021/01/05 05:33:41;;;;;;;1.35;0.43;;;;;;;7.35;69.08;100615.75;5029203;28;20025;-49
2021/01/05 05:36:32;;;;;;;0.70;0.52;;;;;;;7.40;69.88;100621.25;5064149;28;20396;-45
2021/01/05 05:39:12;;;;;;;1.77;0.82;;;;;;;7.47;69.94;100615.81;5031760;28;20030;-48
2021/01/05 05:42:26;;;;;;;0.93;0.50;;;;;;;7.37;70.16;100625.16;5034383;28;20029;-48
2021/01/05 05:45:33;;;;;;;1.02;0.60;;;;;;;7.31;70.95;100626.06;5034169;28;20041;-45
2021/01/05 05:47:58;;;;;;;1.20;0.75;;;;;;;7.33;70.61;100615.97;5011342;28;20060;-45
2021/01/05 05:50:49;;;;;;;4.72;1.25;;;;;;;7.39;71.04;100616.94;5035074;28;20029;-46
2021/01/05 05:53:18;;;;;;;2.27;1.33;;;;;;;7.54;70.32;100627.28;5035062;28;21205;-46
2021/01/05 05:55:48;;;;;;;2.22;0.90;;;;;;;7.58;70.16;100629.25;5031352;28;20025;-50
2021/01/05 05:58:19;;;;;;;1.48;1.05;;;;;;;7.58;70.16;100628.44;5034962;28;20064;-44
2021/01/05 06:00:51;;;;;;;1.83;1.45;;;;;;;7.67;70.04;100620.97;5034400;28;20028;-46
2021/01/05 06:03:19;;;;;;;3.47;2.08;;;;;;;7.60;70.40;100629.03;5036301;28;20046;-46
2021/01/05 06:05:45;;;;;;;0.93;0.75;;;;;;;7.51;70.91;100628.50;5034761;28;20035;-48
2021/01/05 06:08:15;;;;;;;2.88;0.70;;;;;;;7.55;70.81;100629.69;5033428;28;20045;-45
2021/01/05 06:10:40;;;;;;;5.70;0.77;;;;;;;7.45;71.23;100636.59;5031854;28;20025;-45
2021/01/05 06:13:06;;;;;;;3.67;1.77;;;;;;;7.58;70.58;100636.44;5032312;28;20034;-47
2021/01/05 06:15:33;;;;;;;4.00;1.02;;;;;;;7.57;70.56;100624.13;5025631;28;20045;-47
2021/01/05 06:18:08;;;;;;;5.30;0.93;;;;;;;7.64;70.58;100627.53;5031859;28;20127;-49
2021/01/05 06:20:33;;;;;;;1.75;0.88;;;;;;;7.65;70.65;100636.38;5026444;28;20043;-46
2021/01/05 06:22:59;;;;;;;1.83;1.00;;;;;;;7.62;70.54;100631.47;5031795;28;20041;-47
2021/01/05 06:25:25;;;;;;;3.35;1.65;;;;;;;7.65;70.70;100615.84;5031869;28;20025;-45
2021/01/05 06:27:51;;;;;;;2.47;1.35;;;;;;;7.61;70.65;100635.19;5031770;28;20041;-46
2021/01/05 06:30:17;;;;;;;6.13;1.20;;;;;;;7.58;70.75;100639.13;5043503;28;20033;-48
2021/01/05 06:32:43;;;;;;;3.20;1.80;;;;;;;7.53;71.38;100637.09;5040800;28;20429;-46
2021/01/05 06:35:10;;;;;;;6.78;1.23;;;;;;;7.58;71.37;100629.25;5031405;28;20112;-44
2021/01/05 06:37:36;;;;;;;0.25;0.20;;;;;;;7.76;70.91;100627.63;5031559;28;20048;-45
2021/01/05 06:40:05;;;;;;;2.78;1.08;;;;;;;7.74;70.81;100640.38;5043908;28;20116;-45
2021/01/05 06:42:30;;;;;;;2.70;1.42;;;;;;;7.62;71.33;100640.28;5043644;28;20140;-48
2021/01/05 06:44:56;;;;;;;2.75;2.40;;;;;;;7.77;70.85;100639.94;5031867;28;20025;-45
2021/01/05 06:47:21;;;;;;;4.32;3.65;;;;;;;7.70;71.27;100645.34;5032533;28;20056;-46
2021/01/05 06:49:46;;;;;;;4.30;3.13;;;;;;;7.69;71.13;100646.38;5035516;28;20026;-46
2021/01/05 06:52:12;;;;;;;4.43;3.15;;;;;;;7.78;71.18;100656.75;5030957;28;20107;-44
2021/01/05 06:54:37;;;;;;;5.13;4.03;;;;;;;7.75;70.89;100650.03;5031532;28;20083;-46
2021/01/05 06:57:03;;;;;;;3.08;1.63;;;;;;;7.72;70.99;100651.28;5030960;28;20029;-47
2021/01/05 06:59:29;;;;;;;3.40;2.45;;;;;;;7.76;70.89;100643.63;5031173;28;20103;-44
2021/01/05 07:02:03;;;;;;;3.22;1.63;;;;;;;7.62;71.39;100652.84;5036517;28;20041;-46
2021/01/05 07:04:29;;;;;;;2.08;1.48;;;;;;;7.66;71.41;100662.03;5037008;28;20037;-46
2021/01/05 07:06:56;;;;;;;7.82;3.75;;;;;;;7.76;71.05;100656.97;5036890;28;20029;-45
2021/01/05 07:09:23;;;;;;;5.10;2.47;;;;;;;7.91;70.45;100652.09;5045704;28;20091;-44
2021/01/05 07:11:49;;;;;;;5.97;3.15;;;;;;;7.80;70.81;100657.34;5040118;28;20033;-44
2021/01/05 07:14:18;;;;;;;13.68;3.83;;;;;;;7.81;70.85;100656.31;5031833;28;20448;-45
2021/01/05 07:16:43;;;;;;;3.17;2.47;;;;;;;7.82;70.79;100663.28;5038483;28;20029;-44
2021/01/05 07:19:09;;;;;;;3.35;2.08;;;;;;;7.75;70.92;100668.72;5039555;28;20091;-49
2021/01/05 07:21:35;;;;;;;2.92;1.88;;;;;;;7.81;70.86;100659.00;5046118;28;20111;-47
2021/01/05 07:24:01;;;;;;;7.43;4.85;;;;;;;7.90;70.85;100669.13;5045135;28;20075;-49
2021/01/05 07:26:26;;;;;;;7.30;3.55;;;;;;;7.76;70.91;100675.66;5043122;28;20033;-47
2021/01/05 07:28:52;;;;;;;2.83;1.95;;;;;;;7.67;71.16;100672.47;5030786;28;20060;-46
2021/01/05 07:31:18;;;;;;;5.22;3.20;;;;;;;7.79;70.64;100674.44;5030642;28;20057;-45
2021/01/05 07:33:43;;;;;;;8.35;4.53;;;;;;;7.91;70.70;100686.81;5031397;28;20045;-46
2021/01/05 07:36:20;;;;;;;6.55;4.50;;;;;;;7.99;70.59;100676.84;5031096;28;20116;-44
2021/01/05 07:38:46;;;;;;;6.47;4.60;;;;;;;8.04;70.10;100675.13;5030797;28;20517;-48
2021/01/05 07:41:11;;;;;;;7.70;2.88;;;;;;;8.08;70.64;100688.84;5030131;28;20132;-46
2021/01/05 07:43:36;;;;;;;6.15;4.78;;;;;;;8.12;70.58;100679.38;5046799;28;20468;-47
2021/01/05 07:46:02;;;;;;;8.82;6.75;;;;;;;8.06;70.92;100685.59;5033662;28;20470;-49
2021/01/05 07:48:28;;;;;;;12.40;6.93;;;;;;;8.08;70.52;100689.69;5029595;28;20033;-46
2021/01/05 07:50:53;;;;;;;8.73;5.80;;;;;;;7.98;71.23;100700.09;5033780;28;20032;-46
2021/01/05 07:53:18;;;;;;;15.10;6.80;;;;;;;7.87;71.04;100701.63;5034178;28;20037;-48
2021/01/05 07:55:44;;;;;;;6.65;5.03;;;;;;;7.91;71.63;100705.50;5041610;28;20394;-46
2021/01/05 07:58:09;;;;;;;7.32;5.00;;;;;;;8.08;70.52;100705.72;5043975;28;20040;-46
2021/01/05 08:00:35;;;;;;;11.60;9.10;;;;;;;8.13;70.87;100707.69;5046470;28;20037;-47
2021/01/05 08:03:00;;;;;;;16.23;12.48;;;;;;;8.12;70.96;100711.44;5041901;28;20025;-46
2021/01/05 08:05:28;;;;;;;18.48;12.65;;;;;;;8.19;70.23;100714.00;5043516;28;20099;-49
2021/01/05 08:07:54;;;;;;;16.98;12.23;;;;;;;8.08;70.65;100724.41;5043290;28;20033;-48
2021/01/05 08:10:32;;;;;;;28.33;24.75;;;;;;;7.98;71.40;100725.94;5042344;28;20470;-46
2021/01/05 08:12:58;;;;;;;28.23;24.90;;;;;;;7.99;71.12;100730.25;5044163;28;20468;-51
2021/01/05 08:15:29;;;;;;;26.27;22.67;;;;;;;7.99;71.40;100723.06;5044943;28;20083;-45
2021/01/05 08:17:55;;;;;;;21.50;17.15;;;;;;;8.02;71.69;100729.81;5045892;28;20037;-46
2021/01/05 08:20:24;;;;;;;34.67;26.52;;;;;;;7.90;71.66;100732.41;5044651;28;20072;-49
2021/01/05 08:22:50;;;;;;;31.88;23.88;;;;;;;7.70;72.32;100737.97;5046193;28;20060;-49
2021/01/05 08:25:17;;;;;;;34.25;25.00;;;;;;;7.74;72.72;100741.81;5044093;28;20140;-50
2021/01/05 08:27:47;;;;;;;34.08;21.80;;;;;;;7.90;71.83;100741.22;5045866;28;20037;-48
2021/01/05 08:30:25;;;;;;;31.25;21.52;;;;;;;8.08;71.32;100742.25;5044005;28;20049;-43
2021/01/05 08:32:52;;;;;;;16.08;14.45;;;;;;;8.09;70.71;100749.25;5049239;28;20045;-49
2021/01/05 08:35:21;;;;;;;18.20;15.07;;;;;;;8.20;69.37;100747.69;5045877;28;20451;-45
2021/01/05 08:37:46;;;;;;;19.02;16.10;;;;;;;8.26;69.33;100742.28;5049750;28;20053;-48
2021/01/05 08:40:16;;;;;;;26.48;20.65;;;;;;;8.32;69.95;100754.72;5047603;28;20414;-50
2021/01/05 08:42:41;;;;;;;28.30;16.52;;;;;;;8.35;70.08;100747.31;5049476;28;20111;-46
2021/01/05 08:45:08;;;;;;;18.42;13.90;;;;;;;8.42;69.06;100742.72;5036099;28;20521;-49
2021/01/05 08:47:34;;;;;;;29.13;22.10;;;;;;;8.46;69.40;100743.91;5033861;28;20034;-50
2021/01/05 08:50:00;;;;;;;18.10;13.88;;;;;;;8.44;69.33;100751.34;5033704;28;20096;-49
2021/01/05 08:52:25;;;;;;;22.42;15.95;;;;;;;8.47;69.57;100750.91;5033685;28;20025;-47
2021/01/05 08:54:51;;;;;;;22.85;18.50;;;;;;;8.48;70.15;100747.97;5033771;28;20043;-52
2021/01/05 08:57:16;;;;;;;24.63;18.88;;;;;;;8.46;70.12;100749.25;5033322;28;20026;-48
2021/01/05 08:59:45;;;;;;;21.60;14.30;;;;;;;8.48;69.64;100747.97;5031584;28;20049;-46
2021/01/05 09:02:11;;;;;;;21.33;14.32;;;;;;;8.50;69.16;100758.44;5032632;28;20030;-48
2021/01/05 09:04:36;;;;;;;18.80;13.27;;;;;;;8.60;68.43;100756.06;5033207;28;20094;-45
2021/01/05 09:07:02;;;;;;;29.38;19.63;;;;;;;8.57;69.60;100761.84;5032684;28;20091;-48
2021/01/05 09:09:27;;;;;;;40.65;22.00;;;;;;;8.61;69.82;100756.91;5032945;28;20033;-50
2021/01/05 09:11:54;;;;;;;17.42;14.90;;;;;;;8.56;69.26;100760.25;5032778;28;20461;-50
2021/01/05 09:14:21;;;;;;;23.35;15.73;;;;;;;8.61;69.44;100763.06;5033301;28;20030;-49
2021/01/05 09:16:47;;;;;;;17.05;10.25;;;;;;;8.63;68.44;100770.84;5032823;28;20069;-49
2021/01/05 09:19:13;;;;;;;26.55;12.57;;;;;;;8.66;68.30;100768.53;5032832;28;20068;-45
2021/01/05 09:21:38;;;;;;;21.10;17.13;;;;;;;8.72;68.87;100771.34;5037226;28;20120;-52
2021/01/05 09:24:04;;;;;;;21.98;17.42;;;;;;;8.70;69.25;100766.22;5046590;28;20051;-52
2021/01/05 09:26:33;;;;;;;19.45;12.15;;;;;;;8.78;68.17;100768.56;5048258;28;20504;-49
2021/01/05 09:28:59;;;;;;;19.05;11.82;;;;;;;8.87;67.71;100769.06;5047294;28;20045;-46
2021/01/05 09:31:25;;;;;;;19.10;10.38;;;;;;;8.92;67.88;100771.88;5047572;28;20048;-47
2021/01/05 09:33:51;;;;;;;8.30;7.50;;;;;;;8.94;67.67;100768.97;5048474;28;20393;-50
2021/01/05 09:36:17;;;;;;;12.93;11.35;;;;;;;8.94;68.20;100779.69;5043945;28;20051;-48
2021/01/05 09:38:44;;;;;;;13.27;11.52;;;;;;;8.93;67.99;100781.53;5048497;28;20452;-51
2021/01/05 09:41:22;;;;;;;12.05;10.57;;;;;;;8.94;68.04;100777.84;5045553;28;20083;-45
2021/01/05 09:43:47;;;;;;;21.63;14.65;;;;;;;8.91;66.01;100777.47;5031456;28;20025;-46
2021/01/05 09:46:13;;;;;;;16.95;13.38;;;;;;;8.90;66.80;100792.69;5032444;28;20482;-46
2021/01/05 09:48:39;;;;;;;23.25;13.38;;;;;;;8.96;67.08;100785.59;5032650;28;20030;-51
2021/01/05 09:51:04;;;;;;;16.73;11.80;;;;;;;8.99;66.53;100787.84;5032180;28;20078;-46
2021/01/05 09:53:30;;;;;;;13.32;9.88;;;;;;;9.00;65.75;100787.59;5032500;28;20069;-45
2021/01/05 09:55:55;;;;;;;9.75;7.15;;;;;;;8.99;64.71;100787.84;5031840;28;20025;-47
2021/01/05 09:58:21;;;;;;;17.95;11.88;;;;;;;8.99;65.10;100798.53;5032381;28;20034;-45
2021/01/05 10:00:46;;;;;;;14.75;9.45;;;;;;;8.95;64.68;100795.50;5031890;28;20037;-49
2021/01/05 10:03:11;;;;;;;8.95;5.28;;;;;;;8.92;63.76;100790.59;5032288;28;20071;-45
2021/01/05 10:05:37;;;;;;;6.53;4.35;;;;;;;8.76;60.52;100786.69;5032036;28;20049;-47
2021/01/05 10:08:03;;;;;;;6.85;6.15;;;;;;;8.79;62.14;100786.25;5031987;28;20475;-47
2021/01/05 10:10:28;;;;;;;6.95;4.80;;;;;;;8.88;61.29;100782.22;5031816;28;20033;-45
2021/01/05 10:12:54;;;;;;;5.82;4.05;;;;;;;8.98;62.58;100784.34;5031757;28;20505;-46
2021/01/05 10:15:22;;;;;;;5.20;4.70;;;;;;;9.10;62.92;100776.38;5032064;28;20041;-46
2021/01/05 10:17:47;;;;;;;3.95;3.05;;;;;;;9.19;62.46;100784.88;5032037;28;20029;-45
2021/01/05 10:20:16;;;;;;;5.55;4.32;;;;;;;9.24;63.03;100787.69;5031556;28;20064;-45
2021/01/05 10:22:41;;;;;;;8.93;5.97;;;;;;;9.16;64.35;100780.00;5031313;28;20136;-44
2021/01/05 10:25:09;;;;;;;5.90;3.78;;;;;;;9.06;63.50;100780.53;5031747;28;20506;-44
2021/01/05 10:27:35;;;;;;;3.10;2.50;;;;;;;9.06;63.45;100784.03;5031187;28;20144;-44
2021/01/05 10:30:01;;;;;;;5.97;1.85;;;;;;;9.12;62.68;100776.16;5031029;28;20179;-50
2021/01/05 10:32:26;;;;;;;5.85;3.75;;;;;;;9.22;61.64;100779.06;5031465;28;20033;-46
2021/01/05 10:34:51;;;;;;;4.53;3.08;;;;;;;9.24;62.56;100769.78;5031368;28;20055;-48
2021/01/05 10:37:17;;;;;;;1.80;1.25;;;;;;;9.17;62.65;100766.38;5031214;28;20486;-46
2021/01/05 10:39:44;;;;;;;4.50;2.60;;;;;;;9.30;60.98;100775.25;5031411;28;20056;-45
2021/01/05 10:42:10;;;;;;;4.47;1.77;;;;;;;9.38;61.79;100773.06;5031577;28;20041;-47
2021/01/05 10:44:35;;;;;;;6.15;3.17;;;;;;;9.39;61.78;100768.50;5031654;28;20045;-50
2021/01/05 10:47:06;;;;;;;4.55;2.47;;;;;;;9.29;61.01;100769.06;5031128;28;20534;-48
2021/01/05 10:49:32;;;;;;;3.58;2.60;;;;;;;9.34;61.73;100765.72;5031416;28;20498;-47
2021/01/05 10:52:00;;;;;;;1.38;0.95;;;;;;;9.25;60.34;100765.22;5031350;28;20116;-45
2021/01/05 10:54:27;;;;;;;4.32;2.08;;;;;;;9.26;61.56;100750.81;5030620;28;20087;-44
2021/01/05 10:56:57;;;;;;;4.68;1.80;;;;;;;9.38;61.15;100756.16;5031189;28;20128;-44
2021/01/05 10:59:23;;;;;;;2.47;1.90;;;;;;;9.42;61.21;100749.31;5031264;28;20041;-45
2021/01/05 11:01:49;;;;;;;2.42;1.52;;;;;;;9.27;60.93;100744.41;5031067;28;20037;-44
2021/01/05 11:04:14;;;;;;;1.90;1.20;;;;;;;9.27;61.60;100745.25;5031704;28;20037;-45
2021/01/05 11:06:49;;;;;;;3.50;1.63;;;;;;;9.25;61.54;100741.16;5041044;28;20033;-46
2021/01/05 11:09:14;;;;;;;10.75;5.28;;;;;;;9.37;61.96;100741.19;5044923;28;20120;-44
2021/01/05 11:11:40;;;;;;;5.55;1.65;;;;;;;9.27;60.92;100736.38;5047016;28;20044;-46
2021/01/05 11:14:05;;;;;;;4.05;2.40;;;;;;;9.19;62.31;100726.84;5045206;28;20036;-45
2021/01/05 11:16:30;;;;;;;5.60;3.88;;;;;;;9.27;62.03;100734.53;5046583;28;20107;-46
2021/01/05 11:18:56;;;;;;;9.15;6.13;;;;;;;9.40;62.05;100727.34;5046209;28;20033;-46
2021/01/05 11:21:21;;;;;;;6.97;5.70;;;;;;;9.45;62.48;100724.78;5045066;28;20049;-43
2021/01/05 11:23:47;;;;;;;22.13;5.32;;;;;;;9.52;61.88;100727.31;5046744;28;20082;-44
2021/01/05 11:26:12;;;;;;;19.33;16.83;;;;;;;9.53;62.26;100728.97;5037456;28;20029;-44
2021/01/05 11:28:38;;;;;;;7.85;4.97;;;;;;;9.48;62.45;100721.63;5046161;28;20496;-48
2021/01/05 11:31:05;;;;;;;7.82;4.78;;;;;;;9.44;62.83;100723.94;5043470;28;20473;-45
2021/01/05 11:33:31;;;;;;;4.05;3.63;;;;;;;9.47;62.18;100714.66;5039739;28;20136;-46
2021/01/05 11:35:57;;;;;;;4.57;3.08;;;;;;;9.51;62.45;100715.00;5045893;28;20574;-45
2021/01/05 11:38:23;;;;;;;3.08;2.53;;;;;;;9.61;62.32;100717.91;5045300;28;20375;-43
2021/01/05 11:40:48;;;;;;;4.47;4.00;;;;;;;9.56;61.51;100707.91;5046355;28;20032;-47
2021/01/05 11:43:14;;;;;;;2.65;2.20;;;;;;;9.65;61.86;100708.38;5044243;28;20033;-45
2021/01/05 11:45:39;;;;;;;6.15;3.67;;;;;;;9.69;61.90;100704.16;5046319;28;20057;-45